Terminal Aerodrome Forecast
Issued by NWS

Home | Current Version | Previous Version | Graphics & Text | Print | Product List | Glossary On
Versions: 1 2 3 4 5 6 7 8 9 10 11 12 13 14 15 16 17 18 19 20 21 22 23 24 25
000
FTUS43 KBIS 232209 AAB
TAFMOT
TAF AMD
KMOT 232209Z 2322/2418 08016G21KT P6SM OVC024
     FM240000 08016KT P6SM OVC015
     FM240700 08013KT P6SM VCSH OVC008
     FM241100 05010KT P6SM -SN OVC008
     FM241600 03011KT 3SM -RASN OVC008=

USA.gov is the U.S. government's official web portal to all federal, state and local government web resources and services.